sensor_id;sensor_type;location;lat;lon;timestamp;P1;durP1;ratioP1;P2;durP2;ratioP2
50651;SDS011;66928;52.086;5.240;2023-02-03T06:25:59;9.0;;;2.8;;
50651;SDS011;66928;52.086;5.240;2023-02-03T06:27:36;7.4;;;2.6;;
50651;SDS011;66928;52.086;5.240;2023-02-03T06:30:49;8.71;;;2.6;;
50651;SDS011;66928;52.086;5.240;2023-02-03T06:32:26;9.5;;;2.5;;
50651;SDS011;66928;52.086;5.240;2023-02-03T06:34:02;9.21;;;2.6;;
50651;SDS011;66928;52.086;5.240;2023-02-03T06:35:39;12.5;;;2.7;;
50651;SDS011;66928;52.086;5.240;2023-02-03T06:38:53;8.6;;;2.9;;
50651;SDS011;66928;52.086;5.240;2023-02-03T06:40:30;8.2;;;2.7;;
50651;SDS011;66928;52.086;5.240;2023-02-03T06:42:06;9.31;;;2.6;;
50651;SDS011;66928;52.086;5.240;2023-02-03T06:45:19;11.8;;;3.0;;
50651;SDS011;66928;52.086;5.240;2023-02-03T06:46:55;8.6;;;2.9;;
50651;SDS011;66928;52.086;5.240;2023-02-03T06:48:31;7.5;;;2.8;;
50651;SDS011;66928;52.086;5.240;2023-02-03T06:51:47;7.4;;;2.5;;
50651;SDS011;66928;52.086;5.240;2023-02-03T06:53:23;8.5;;;2.4;;
50651;SDS011;66928;52.086;5.240;2023-02-03T06:54:59;9.81;;;2.8;;
50651;SDS011;66928;52.086;5.240;2023-02-03T06:56:35;11.1;;;3.0;;
50651;SDS011;66928;52.086;5.240;2023-02-03T06:59:49;10.1;;;2.7;;
50651;SDS011;66928;52.086;5.240;2023-02-03T07:01:25;7.3;;;2.7;;
50651;SDS011;66928;52.086;5.240;2023-02-03T07:03:01;7.3;;;2.5;;
50651;SDS011;66928;52.086;5.240;2023-02-03T07:06:14;9.9;;;2.6;;
50651;SDS011;66928;52.086;5.240;2023-02-03T07:07:50;9.5;;;3.2;;
50651;SDS011;66928;52.086;5.240;2023-02-03T07:09:27;7.8;;;2.6;;
50651;SDS011;66928;52.086;5.240;2023-02-03T07:12:40;9.5;;;2.7;;
50651;SDS011;66928;52.086;5.240;2023-02-03T07:14:17;8.0;;;2.5;;
50651;SDS011;66928;52.086;5.240;2023-02-03T07:15:53;7.7;;;2.6;;
50651;SDS011;66928;52.086;5.240;2023-02-03T07:17:29;9.0;;;2.8;;
50651;SDS011;66928;52.086;5.240;2023-02-03T07:20:42;10.6;;;2.8;;
50651;SDS011;66928;52.086;5.240;2023-02-03T07:22:18;7.2;;;2.7;;
50651;SDS011;66928;52.086;5.240;2023-02-03T07:23:55;9.5;;;3.0;;
50651;SDS011;66928;52.086;5.240;2023-02-03T07:27:07;9.1;;;2.7;;
50651;SDS011;66928;52.086;5.240;2023-02-03T07:28:43;8.0;;;2.7;;
50651;SDS011;66928;52.086;5.240;2023-02-03T07:30:19;9.4;;;3.1;;
50651;SDS011;66928;52.086;5.240;2023-02-03T07:33:32;9.9;;;3.0;;
50651;SDS011;66928;52.086;5.240;2023-02-03T07:35:09;9.71;;;3.2;;
50651;SDS011;66928;52.086;5.240;2023-02-03T07:36:45;7.4;;;3.1;;
50651;SDS011;66928;52.086;5.240;2023-02-03T07:38:21;8.2;;;2.9;;
50651;SDS011;66928;52.086;5.240;2023-02-03T07:41:35;9.81;;;2.8;;
50651;SDS011;66928;52.086;5.240;2023-02-03T07:43:11;7.7;;;2.8;;
50651;SDS011;66928;52.086;5.240;2023-02-03T07:44:47;10.1;;;2.8;;
50651;SDS011;66928;52.086;5.240;2023-02-03T07:48:00;10.1;;;2.8;;
50651;SDS011;66928;52.086;5.240;2023-02-03T07:49:36;9.0;;;3.0;;
50651;SDS011;66928;52.086;5.240;2023-02-03T07:51:12;9.31;;;2.9;;
50651;SDS011;66928;52.086;5.240;2023-02-03T07:54:26;9.5;;;3.0;;
50651;SDS011;66928;52.086;5.240;2023-02-03T07:56:02;10.7;;;3.3;;
50651;SDS011;66928;52.086;5.240;2023-02-03T07:57:42;10.1;;;3.2;;
50651;SDS011;66928;52.086;5.240;2023-02-03T07:59:19;8.5;;;2.8;;
50651;SDS011;66928;52.086;5.240;2023-02-03T08:02:32;12.7;;;3.7;;
50651;SDS011;66928;52.086;5.240;2023-02-03T08:04:11;8.0;;;2.7;;
50651;SDS011;66928;52.086;5.240;2023-02-03T08:05:48;8.0;;;2.7;;
50651;SDS011;66928;52.086;5.240;2023-02-03T08:09:01;9.81;;;3.1;;
50651;SDS011;66928;52.086;5.240;2023-02-03T08:10:37;9.4;;;2.8;;
50651;SDS011;66928;52.086;5.240;2023-02-03T08:12:14;9.1;;;2.6;;
50651;SDS011;66928;52.086;5.240;2023-02-03T08:15:26;11.4;;;3.3;;
50651;SDS011;66928;52.086;5.240;2023-02-03T08:17:02;7.1;;;2.8;;
50651;SDS011;66928;52.086;5.240;2023-02-03T08:18:38;8.31;;;3.0;;
50651;SDS011;66928;52.086;5.240;2023-02-03T08:20:15;9.6;;;2.9;;
50651;SDS011;66928;52.086;5.240;2023-02-03T08:23:28;10.5;;;3.2;;
50651;SDS011;66928;52.086;5.240;2023-02-03T08:25:05;9.21;;;3.0;;
50651;SDS011;66928;52.086;5.240;2023-02-03T08:26:41;7.3;;;2.8;;
50651;SDS011;66928;52.086;5.240;2023-02-03T08:29:55;8.6;;;2.9;;
50651;SDS011;66928;52.086;5.240;2023-02-03T08:31:31;11.3;;;3.3;;
50651;SDS011;66928;52.086;5.240;2023-02-03T08:33:07;11.4;;;3.1;;
50651;SDS011;66928;52.086;5.240;2023-02-03T08:36:21;8.9;;;3.1;;
50651;SDS011;66928;52.086;5.240;2023-02-03T08:37:58;11.1;;;2.9;;
50651;SDS011;66928;52.086;5.240;2023-02-03T08:39:34;8.9;;;3.0;;
50651;SDS011;66928;52.086;5.240;2023-02-03T08:41:12;9.21;;;3.0;;
50651;SDS011;66928;52.086;5.240;2023-02-03T08:44:28;9.5;;;3.1;;
50651;SDS011;66928;52.086;5.240;2023-02-03T08:46:06;7.5;;;2.9;;
50651;SDS011;66928;52.086;5.240;2023-02-03T08:47:45;8.5;;;3.0;;
50651;SDS011;66928;52.086;5.240;2023-02-03T08:51:01;9.0;;;3.0;;
50651;SDS011;66928;52.086;5.240;2023-02-03T08:52:37;11.8;;;3.3;;
50651;SDS011;66928;52.086;5.240;2023-02-03T08:54:13;8.71;;;2.8;;
50651;SDS011;66928;52.086;5.240;2023-02-03T08:55:51;8.9;;;2.9;;
50651;SDS011;66928;52.086;5.240;2023-02-03T08:59:08;9.81;;;3.0;;
50651;SDS011;66928;52.086;5.240;2023-02-03T09:00:44;10.6;;;3.6;;
50651;SDS011;66928;52.086;5.240;2023-02-03T09:02:21;9.71;;;3.1;;
50651;SDS011;66928;52.086;5.240;2023-02-03T09:05:37;8.31;;;3.5;;
50651;SDS011;66928;52.086;5.240;2023-02-03T09:07:14;11.4;;;3.4;;
50651;SDS011;66928;52.086;5.240;2023-02-03T09:08:50;10.6;;;3.2;;
50651;SDS011;66928;52.086;5.240;2023-02-03T09:10:27;12.1;;;3.2;;
50651;SDS011;66928;52.086;5.240;2023-02-03T09:13:45;9.6;;;2.8;;
50651;SDS011;66928;52.086;5.240;2023-02-03T09:15:22;9.71;;;2.9;;
50651;SDS011;66928;52.086;5.240;2023-02-03T09:16:58;10.21;;;3.2;;
50651;SDS011;66928;52.086;5.240;2023-02-03T09:20:14;10.1;;;3.4;;
50651;SDS011;66928;52.086;5.240;2023-02-03T09:21:50;9.6;;;3.0;;
50651;SDS011;66928;52.086;5.240;2023-02-03T09:23:27;12.2;;;3.4;;
50651;SDS011;66928;52.086;5.240;2023-02-03T09:25:03;11.3;;;3.4;;
50651;SDS011;66928;52.086;5.240;2023-02-03T09:28:16;9.21;;;3.3;;
50651;SDS011;66928;52.086;5.240;2023-02-03T09:29:53;8.5;;;3.2;;
50651;SDS011;66928;52.086;5.240;2023-02-03T09:31:29;8.5;;;3.0;;
50651;SDS011;66928;52.086;5.240;2023-02-03T09:34:41;10.0;;;3.0;;
50651;SDS011;66928;52.086;5.240;2023-02-03T09:36:17;9.81;;;3.2;;
50651;SDS011;66928;52.086;5.240;2023-02-03T09:37:53;11.8;;;3.1;;
50651;SDS011;66928;52.086;5.240;2023-02-03T09:41:13;8.9;;;3.2;;
50651;SDS011;66928;52.086;5.240;2023-02-03T09:43:09;8.9;;;3.2;;
50651;SDS011;66928;52.086;5.240;2023-02-03T09:45:09;9.9;;;3.2;;
50651;SDS011;66928;52.086;5.240;2023-02-03T09:46:54;8.4;;;3.0;;
50651;SDS011;66928;52.086;5.240;2023-02-03T09:48:35;8.31;;;3.2;;
50651;SDS011;66928;52.086;5.240;2023-02-03T09:50:18;9.1;;;3.2;;
50651;SDS011;66928;52.086;5.240;2023-02-03T09:53:43;7.4;;;2.9;;
50651;SDS011;66928;52.086;5.240;2023-02-03T09:55:27;8.31;;;2.9;;
50651;SDS011;66928;52.086;5.240;2023-02-03T09:57:12;8.71;;;2.7;;
50651;SDS011;66928;52.086;5.240;2023-02-03T09:58:53;7.9;;;2.8;;
50651;SDS011;66928;52.086;5.240;2023-02-03T10:02:15;7.9;;;2.8;;
50651;SDS011;66928;52.086;5.240;2023-02-03T10:04:12;7.9;;;2.9;;
50651;SDS011;66928;52.086;5.240;2023-02-03T10:06:09;7.7;;;2.8;;
50651;SDS011;66928;52.086;5.240;2023-02-03T10:07:55;10.9;;;3.0;;
50651;SDS011;66928;52.086;5.240;2023-02-03T10:09:42;6.4;;;2.7;;
50651;SDS011;66928;52.086;5.240;2023-02-03T10:11:37;8.4;;;3.0;;
50651;SDS011;66928;52.086;5.240;2023-02-03T10:13:47;10.5;;;3.1;;
50651;SDS011;66928;52.086;5.240;2023-02-03T10:15:42;9.21;;;2.9;;
50651;SDS011;66928;52.086;5.240;2023-02-03T10:17:45;9.81;;;3.3;;
50651;SDS011;66928;52.086;5.240;2023-02-03T10:19:31;9.21;;;2.9;;
50651;SDS011;66928;52.086;5.240;2023-02-03T10:23:11;12.0;;;3.2;;
50651;SDS011;66928;52.086;5.240;2023-02-03T10:24:52;6.9;;;2.7;;
50651;SDS011;66928;52.086;5.240;2023-02-03T10:26:35;7.2;;;2.8;;
50651;SDS011;66928;52.086;5.240;2023-02-03T10:28:16;8.81;;;2.7;;
50651;SDS011;66928;52.086;5.240;2023-02-03T10:29:57;9.0;;;2.6;;
50651;SDS011;66928;52.086;5.240;2023-02-03T10:33:17;8.31;;;2.9;;
50651;SDS011;66928;52.086;5.240;2023-02-03T10:34:54;8.81;;;3.2;;
50651;SDS011;66928;52.086;5.240;2023-02-03T10:36:34;9.1;;;2.8;;
50651;SDS011;66928;52.086;5.240;2023-02-03T10:38:32;10.0;;;2.9;;
50651;SDS011;66928;52.086;5.240;2023-02-03T10:40:20;9.0;;;2.7;;
50651;SDS011;66928;52.086;5.240;2023-02-03T10:43:47;9.0;;;2.7;;
50651;SDS011;66928;52.086;5.240;2023-02-03T10:45:25;9.9;;;2.9;;
50651;SDS011;66928;52.086;5.240;2023-02-03T10:47:01;9.0;;;2.8;;
50651;SDS011;66928;52.086;5.240;2023-02-03T10:48:45;8.31;;;2.7;;
50651;SDS011;66928;52.086;5.240;2023-02-03T10:52:03;9.9;;;2.9;;
50651;SDS011;66928;52.086;5.240;2023-02-03T10:53:40;9.5;;;2.6;;
50651;SDS011;66928;52.086;5.240;2023-02-03T10:55:31;8.5;;;3.0;;
50651;SDS011;66928;52.086;5.240;2023-02-03T10:57:10;10.4;;;2.8;;
50651;SDS011;66928;52.086;5.240;2023-02-03T11:00:30;9.6;;;3.3;;
50651;SDS011;66928;52.086;5.240;2023-02-03T11:02:09;8.81;;;2.9;;
50651;SDS011;66928;52.086;5.240;2023-02-03T11:04:04;7.9;;;3.0;;
50651;SDS011;66928;52.086;5.240;2023-02-03T11:05:42;9.31;;;2.8;;
50651;SDS011;66928;52.086;5.240;2023-02-03T11:09:01;8.2;;;3.0;;
50651;SDS011;66928;52.086;5.240;2023-02-03T11:11:01;10.1;;;2.9;;
50651;SDS011;66928;52.086;5.240;2023-02-03T11:12:38;8.31;;;2.8;;
50651;SDS011;66928;52.086;5.240;2023-02-03T11:14:15;9.6;;;2.8;;
50651;SDS011;66928;52.086;5.240;2023-02-03T11:17:34;8.1;;;3.2;;
50651;SDS011;66928;52.086;5.240;2023-02-03T11:19:13;7.8;;;2.7;;
50651;SDS011;66928;52.086;5.240;2023-02-03T11:20:52;8.6;;;2.9;;
50651;SDS011;66928;52.086;5.240;2023-02-03T11:22:29;5.6;;;2.31;;
50651;SDS011;66928;52.086;5.240;2023-02-03T11:25:54;7.9;;;2.8;;
50651;SDS011;66928;52.086;5.240;2023-02-03T11:27:31;8.81;;;3.1;;
50651;SDS011;66928;52.086;5.240;2023-02-03T11:29:13;8.2;;;2.6;;
50651;SDS011;66928;52.086;5.240;2023-02-03T11:30:54;8.0;;;2.8;;
50651;SDS011;66928;52.086;5.240;2023-02-03T11:34:14;9.4;;;3.3;;
50651;SDS011;66928;52.086;5.240;2023-02-03T11:35:53;6.8;;;2.8;;
50651;SDS011;66928;52.086;5.240;2023-02-03T11:37:33;7.7;;;2.8;;
50651;SDS011;66928;52.086;5.240;2023-02-03T11:39:18;10.3;;;3.0;;
50651;SDS011;66928;52.086;5.240;2023-02-03T11:42:37;7.6;;;2.9;;
50651;SDS011;66928;52.086;5.240;2023-02-03T11:44:20;7.1;;;2.7;;
50651;SDS011;66928;52.086;5.240;2023-02-03T11:45:59;8.31;;;2.7;;
50651;SDS011;66928;52.086;5.240;2023-02-03T11:47:42;8.2;;;2.9;;
50651;SDS011;66928;52.086;5.240;2023-02-03T11:51:55;8.71;;;3.1;;
50651;SDS011;66928;52.086;5.240;2023-02-03T11:53:47;8.9;;;2.8;;
50651;SDS011;66928;52.086;5.240;2023-02-03T11:57:31;6.4;;;2.9;;
50651;SDS011;66928;52.086;5.240;2023-02-03T11:59:23;6.9;;;2.8;;
50651;SDS011;66928;52.086;5.240;2023-02-03T12:01:18;7.5;;;2.7;;
50651;SDS011;66928;52.086;5.240;2023-02-03T12:03:13;9.0;;;3.3;;
50651;SDS011;66928;52.086;5.240;2023-02-03T12:05:35;7.0;;;2.8;;
50651;SDS011;66928;52.086;5.240;2023-02-03T12:07:29;8.4;;;3.0;;
50651;SDS011;66928;52.086;5.240;2023-02-03T12:10:14;9.0;;;2.8;;
50651;SDS011;66928;52.086;5.240;2023-02-03T12:12:06;9.0;;;3.2;;
50651;SDS011;66928;52.086;5.240;2023-02-03T12:15:03;8.71;;;3.0;;
50651;SDS011;66928;52.086;5.240;2023-02-03T12:17:03;8.81;;;3.0;;
50651;SDS011;66928;52.086;5.240;2023-02-03T12:19:04;8.6;;;2.8;;
50651;SDS011;66928;52.086;5.240;2023-02-03T12:20:53;11.2;;;3.0;;
50651;SDS011;66928;52.086;5.240;2023-02-03T12:24:34;9.6;;;3.2;;
50651;SDS011;66928;52.086;5.240;2023-02-03T12:26:23;9.21;;;3.2;;
50651;SDS011;66928;52.086;5.240;2023-02-03T12:28:04;8.31;;;3.1;;
50651;SDS011;66928;52.086;5.240;2023-02-03T12:29:58;8.31;;;3.0;;
50651;SDS011;66928;52.086;5.240;2023-02-03T12:33:22;10.0;;;3.3;;
50651;SDS011;66928;52.086;5.240;2023-02-03T12:36:54;10.8;;;3.4;;
50651;SDS011;66928;52.086;5.240;2023-02-03T12:38:38;7.3;;;3.1;;
50651;SDS011;66928;52.086;5.240;2023-02-03T12:40:21;9.71;;;2.9;;
50651;SDS011;66928;52.086;5.240;2023-02-03T12:42:12;9.81;;;3.1;;
50651;SDS011;66928;52.086;5.240;2023-02-03T12:43:57;9.81;;;2.9;;
50651;SDS011;66928;52.086;5.240;2023-02-03T12:47:17;9.4;;;3.2;;
50651;SDS011;66928;52.086;5.240;2023-02-03T12:49:02;11.4;;;3.8;;
50651;SDS011;66928;52.086;5.240;2023-02-03T12:50:49;11.2;;;3.6;;
50651;SDS011;66928;52.086;5.240;2023-02-03T12:52:30;11.2;;;3.6;;
50651;SDS011;66928;52.086;5.240;2023-02-03T12:54:19;9.4;;;3.1;;
50651;SDS011;66928;52.086;5.240;2023-02-03T12:57:55;9.21;;;3.6;;
50651;SDS011;66928;52.086;5.240;2023-02-03T12:59:35;8.9;;;3.3;;
50651;SDS011;66928;52.086;5.240;2023-02-03T13:01:17;8.5;;;3.3;;
50651;SDS011;66928;52.086;5.240;2023-02-03T13:03:01;11.2;;;3.7;;
50651;SDS011;66928;52.086;5.240;2023-02-03T13:04:46;10.4;;;3.2;;
50651;SDS011;66928;52.086;5.240;2023-02-03T13:08:16;8.6;;;3.2;;
50651;SDS011;66928;52.086;5.240;2023-02-03T13:09:58;8.81;;;3.2;;
50651;SDS011;66928;52.086;5.240;2023-02-03T13:11:39;10.3;;;3.5;;
50651;SDS011;66928;52.086;5.240;2023-02-03T13:13:27;12.4;;;4.0;;
50651;SDS011;66928;52.086;5.240;2023-02-03T13:15:15;12.4;;;3.9;;
50651;SDS011;66928;52.086;5.240;2023-02-03T13:18:43;12.9;;;4.0;;
50651;SDS011;66928;52.086;5.240;2023-02-03T13:20:25;13.1;;;3.9;;
50651;SDS011;66928;52.086;5.240;2023-02-03T13:22:08;11.3;;;3.9;;
50651;SDS011;66928;52.086;5.240;2023-02-03T13:23:49;12.9;;;3.9;;
50651;SDS011;66928;52.086;5.240;2023-02-03T13:27:22;10.6;;;3.2;;
50651;SDS011;66928;52.086;5.240;2023-02-03T13:29:19;12.8;;;3.8;;
50651;SDS011;66928;52.086;5.240;2023-02-03T13:31:17;11.8;;;4.0;;
50651;SDS011;66928;52.086;5.240;2023-02-03T13:34:15;12.4;;;3.8;;
50651;SDS011;66928;52.086;5.240;2023-02-03T13:36:31;16.2;;;4.0;;
50651;SDS011;66928;52.086;5.240;2023-02-03T13:40:29;10.5;;;3.6;;
50651;SDS011;66928;52.086;5.240;2023-02-03T13:44:00;12.5;;;3.7;;
50651;SDS011;66928;52.086;5.240;2023-02-03T13:45:38;10.3;;;3.3;;
50651;SDS011;66928;52.086;5.240;2023-02-03T13:47:18;10.5;;;3.8;;
50651;SDS011;66928;52.086;5.240;2023-02-03T13:49:01;12.5;;;3.6;;
50651;SDS011;66928;52.086;5.240;2023-02-03T13:52:23;14.0;;;4.3;;
50651;SDS011;66928;52.086;5.240;2023-02-03T13:54:12;11.5;;;3.9;;
50651;SDS011;66928;52.086;5.240;2023-02-03T13:55:55;12.0;;;4.0;;
50651;SDS011;66928;52.086;5.240;2023-02-03T13:57:35;12.4;;;3.9;;
50651;SDS011;66928;52.086;5.240;2023-02-03T13:59:25;15.3;;;4.61;;
50651;SDS011;66928;52.086;5.240;2023-02-03T14:03:14;14.0;;;4.1;;
50651;SDS011;66928;52.086;5.240;2023-02-03T14:04:54;14.7;;;3.9;;
50651;SDS011;66928;52.086;5.240;2023-02-03T14:10:27;16.3;;;4.1;;
50651;SDS011;66928;52.086;5.240;2023-02-03T14:14:44;13.2;;;4.0;;
50651;SDS011;66928;52.086;5.240;2023-02-03T14:16:36;16.9;;;4.5;;
50651;SDS011;66928;52.086;5.240;2023-02-03T14:18:29;17.7;;;4.2;;
50651;SDS011;66928;52.086;5.240;2023-02-03T14:21:15;17.2;;;4.61;;
50651;SDS011;66928;52.086;5.240;2023-02-03T14:22:55;14.3;;;4.1;;
50651;SDS011;66928;52.086;5.240;2023-02-03T14:24:42;15.4;;;4.5;;
50651;SDS011;66928;52.086;5.240;2023-02-03T14:26:24;17.8;;;4.91;;
50651;SDS011;66928;52.086;5.240;2023-02-03T14:30:01;17.91;;;4.61;;
50651;SDS011;66928;52.086;5.240;2023-02-03T14:31:51;20.2;;;4.91;;
50651;SDS011;66928;52.086;5.240;2023-02-03T14:34:10;16.3;;;4.5;;
50651;SDS011;66928;52.086;5.240;2023-02-03T14:35:48;15.9;;;4.61;;
50651;SDS011;66928;52.086;5.240;2023-02-03T14:37:25;15.3;;;4.7;;
50651;SDS011;66928;52.086;5.240;2023-02-03T14:39:19;18.91;;;4.7;;
50651;SDS011;66928;52.086;5.240;2023-02-03T14:42:12;18.3;;;4.5;;
50651;SDS011;66928;52.086;5.240;2023-02-03T14:43:58;16.5;;;4.41;;
50651;SDS011;66928;52.086;5.240;2023-02-03T14:45:50;15.3;;;4.3;;
50651;SDS011;66928;52.086;5.240;2023-02-03T14:48:41;15.3;;;4.3;;
50651;SDS011;66928;52.086;5.240;2023-02-03T14:50:37;14.9;;;4.61;;
50651;SDS011;66928;52.086;5.240;2023-02-03T14:52:27;16.0;;;4.41;;
50651;SDS011;66928;52.086;5.240;2023-02-03T14:54:27;17.7;;;5.11;;
50651;SDS011;66928;52.086;5.240;2023-02-03T14:56:21;18.11;;;5.0;;
50651;SDS011;66928;52.086;5.240;2023-02-03T14:58:15;17.3;;;5.2;;
50651;SDS011;66928;52.086;5.240;2023-02-03T15:00:03;20.8;;;5.3;;
50651;SDS011;66928;52.086;5.240;2023-02-03T15:04:32;17.2;;;4.91;;
50651;SDS011;66928;52.086;5.240;2023-02-03T15:06:27;18.3;;;5.4;;
50651;SDS011;66928;52.086;5.240;2023-02-03T15:08:28;18.8;;;5.2;;
50651;SDS011;66928;52.086;5.240;2023-02-03T15:10:21;19.2;;;5.3;;
50651;SDS011;66928;52.086;5.240;2023-02-03T15:13:53;20.2;;;5.3;;
50651;SDS011;66928;52.086;5.240;2023-02-03T15:15:32;17.91;;;5.4;;
50651;SDS011;66928;52.086;5.240;2023-02-03T15:17:20;19.8;;;5.11;;
50651;SDS011;66928;52.086;5.240;2023-02-03T15:18:59;17.2;;;4.8;;
50651;SDS011;66928;52.086;5.240;2023-02-03T15:22:18;18.91;;;5.5;;
50651;SDS011;66928;52.086;5.240;2023-02-03T15:23:56;20.6;;;5.4;;
50651;SDS011;66928;52.086;5.240;2023-02-03T15:25:34;22.9;;;5.8;;
50651;SDS011;66928;52.086;5.240;2023-02-03T15:27:18;20.6;;;5.7;;
50651;SDS011;66928;52.086;5.240;2023-02-03T15:30:35;20.8;;;5.4;;
50651;SDS011;66928;52.086;5.240;2023-02-03T15:32:14;20.6;;;5.6;;
50651;SDS011;66928;52.086;5.240;2023-02-03T15:33:56;21.0;;;5.6;;
50651;SDS011;66928;52.086;5.240;2023-02-03T15:35:38;21.3;;;6.1;;
50651;SDS011;66928;52.086;5.240;2023-02-03T15:39:06;17.8;;;5.2;;
50651;SDS011;66928;52.086;5.240;2023-02-03T15:41:01;18.5;;;5.4;;
50651;SDS011;66928;52.086;5.240;2023-02-03T15:42:43;15.1;;;4.91;;
50651;SDS011;66928;52.086;5.240;2023-02-03T15:44:33;21.7;;;5.2;;
50651;SDS011;66928;52.086;5.240;2023-02-03T15:46:19;19.2;;;5.5;;
50651;SDS011;66928;52.086;5.240;2023-02-03T15:48:03;20.3;;;5.5;;
50651;SDS011;66928;52.086;5.240;2023-02-03T15:51:35;19.0;;;5.2;;
50651;SDS011;66928;52.086;5.240;2023-02-03T15:53:17;16.8;;;4.91;;
50651;SDS011;66928;52.086;5.240;2023-02-03T15:55:00;17.8;;;4.61;;
50651;SDS011;66928;52.086;5.240;2023-02-03T15:56:56;19.0;;;5.11;;
50651;SDS011;66928;52.086;5.240;2023-02-03T15:58:38;15.8;;;5.0;;
50651;SDS011;66928;52.086;5.240;2023-02-03T16:02:12;18.7;;;5.2;;
50651;SDS011;66928;52.086;5.240;2023-02-03T16:03:53;21.4;;;5.11;;
50651;SDS011;66928;52.086;5.240;2023-02-03T16:05:31;20.8;;;4.91;;
50651;SDS011;66928;52.086;5.240;2023-02-03T16:07:11;21.0;;;5.4;;
50651;SDS011;66928;52.086;5.240;2023-02-03T16:08:53;20.0;;;5.2;;
50651;SDS011;66928;52.086;5.240;2023-02-03T16:12:14;15.8;;;5.11;;
50651;SDS011;66928;52.086;5.240;2023-02-03T16:13:59;18.91;;;5.2;;
50651;SDS011;66928;52.086;5.240;2023-02-03T16:15:37;20.5;;;5.8;;
50651;SDS011;66928;52.086;5.240;2023-02-03T16:17:25;20.8;;;5.3;;
50651;SDS011;66928;52.086;5.240;2023-02-03T16:20:48;19.41;;;5.6;;
50651;SDS011;66928;52.086;5.240;2023-02-03T16:22:26;14.1;;;4.91;;
50651;SDS011;66928;52.086;5.240;2023-02-03T16:24:05;17.61;;;5.2;;
50651;SDS011;66928;52.086;5.240;2023-02-03T16:26:18;17.8;;;5.3;;
50651;SDS011;66928;52.086;5.240;2023-02-03T16:51:22;19.11;;;5.4;;
50651;SDS011;66928;52.086;5.240;2023-02-03T16:53:00;16.7;;;5.2;;
50651;SDS011;66928;52.086;5.240;2023-02-03T16:56:12;19.8;;;5.2;;
50651;SDS011;66928;52.086;5.240;2023-02-03T16:57:50;18.8;;;5.8;;
50651;SDS011;66928;52.086;5.240;2023-02-03T16:59:26;20.9;;;6.2;;
50651;SDS011;66928;52.086;5.240;2023-02-03T17:02:42;18.8;;;5.9;;
50651;SDS011;66928;52.086;5.240;2023-02-03T17:04:19;22.3;;;6.0;;
50651;SDS011;66928;52.086;5.240;2023-02-03T17:05:55;14.4;;;5.0;;
50651;SDS011;66928;52.086;5.240;2023-02-03T17:07:33;19.5;;;5.3;;
50651;SDS011;66928;52.086;5.240;2023-02-03T17:10:46;15.7;;;4.91;;
50651;SDS011;66928;52.086;5.240;2023-02-03T17:12:24;18.0;;;5.7;;
50651;SDS011;66928;52.086;5.240;2023-02-03T17:14:02;19.41;;;4.91;;
50651;SDS011;66928;52.086;5.240;2023-02-03T17:17:16;19.91;;;5.4;;
50651;SDS011;66928;52.086;5.240;2023-02-03T17:18:52;19.7;;;5.11;;
50651;SDS011;66928;52.086;5.240;2023-02-03T17:20:29;17.3;;;4.8;;
50651;SDS011;66928;52.086;5.240;2023-02-03T17:22:06;15.8;;;5.11;;
50651;SDS011;66928;52.086;5.240;2023-02-03T17:25:20;17.5;;;5.11;;
50651;SDS011;66928;52.086;5.240;2023-02-03T17:26:56;16.3;;;5.3;;
50651;SDS011;66928;52.086;5.240;2023-02-03T17:28:32;19.8;;;5.3;;
50651;SDS011;66928;52.086;5.240;2023-02-03T17:31:47;16.61;;;4.91;;
50651;SDS011;66928;52.086;5.240;2023-02-03T17:33:24;18.7;;;5.4;;
50651;SDS011;66928;52.086;5.240;2023-02-03T17:35:01;16.9;;;5.11;;
50651;SDS011;66928;52.086;5.240;2023-02-03T17:36:37;17.11;;;5.2;;
50651;SDS011;66928;52.086;5.240;2023-02-03T17:39:49;17.0;;;5.5;;
50651;SDS011;66928;52.086;5.240;2023-02-03T17:41:27;22.3;;;5.9;;
50651;SDS011;66928;52.086;5.240;2023-02-03T17:43:03;16.61;;;5.5;;
50651;SDS011;66928;52.086;5.240;2023-02-03T17:46:16;19.41;;;5.8;;
50651;SDS011;66928;52.086;5.240;2023-02-03T17:47:56;20.5;;;5.7;;
50651;SDS011;66928;52.086;5.240;2023-02-03T17:49:32;20.9;;;5.8;;
50651;SDS011;66928;52.086;5.240;2023-02-03T17:52:48;18.61;;;5.5;;
50651;SDS011;66928;52.086;5.240;2023-02-03T17:54:24;17.7;;;5.5;;
50651;SDS011;66928;52.086;5.240;2023-02-03T17:56:04;17.2;;;5.7;;
50651;SDS011;66928;52.086;5.240;2023-02-03T17:57:41;22.6;;;5.8;;
50651;SDS011;66928;52.086;5.240;2023-02-03T18:00:53;17.3;;;5.8;;
50651;SDS011;66928;52.086;5.240;2023-02-03T18:02:30;20.2;;;5.4;;
50651;SDS011;66928;52.086;5.240;2023-02-03T18:04:07;19.8;;;5.6;;
50651;SDS011;66928;52.086;5.240;2023-02-03T18:07:25;18.2;;;6.1;;
50651;SDS011;66928;52.086;5.240;2023-02-03T18:09:02;26.0;;;6.2;;
50651;SDS011;66928;52.086;5.240;2023-02-03T18:10:40;20.6;;;5.5;;
50651;SDS011;66928;52.086;5.240;2023-02-03T18:12:16;23.5;;;6.0;;
50651;SDS011;66928;52.086;5.240;2023-02-03T18:15:29;22.1;;;6.2;;
50651;SDS011;66928;52.086;5.240;2023-02-03T18:17:05;18.8;;;6.1;;
50651;SDS011;66928;52.086;5.240;2023-02-03T18:18:43;22.4;;;6.6;;
50651;SDS011;66928;52.086;5.240;2023-02-03T18:21:55;21.1;;;5.9;;
50651;SDS011;66928;52.086;5.240;2023-02-03T18:23:32;20.6;;;5.5;;
50651;SDS011;66928;52.086;5.240;2023-02-03T18:25:09;21.2;;;6.2;;
50651;SDS011;66928;52.086;5.240;2023-02-03T18:28:24;23.4;;;6.4;;
50651;SDS011;66928;52.086;5.240;2023-02-03T18:30:02;20.6;;;6.5;;
50651;SDS011;66928;52.086;5.240;2023-02-03T18:31:38;21.4;;;7.1;;
50651;SDS011;66928;52.086;5.240;2023-02-03T18:33:15;21.0;;;6.5;;
50651;SDS011;66928;52.086;5.240;2023-02-03T18:36:28;19.11;;;5.6;;
50651;SDS011;66928;52.086;5.240;2023-02-03T18:38:06;22.6;;;6.7;;
50651;SDS011;66928;52.086;5.240;2023-02-03T18:39:43;20.9;;;6.2;;
50651;SDS011;66928;52.086;5.240;2023-02-03T18:42:58;22.4;;;5.8;;
50651;SDS011;66928;52.086;5.240;2023-02-03T18:44:35;24.9;;;7.1;;
50651;SDS011;66928;52.086;5.240;2023-02-03T18:46:13;21.2;;;6.1;;
50651;SDS011;66928;52.086;5.240;2023-02-03T18:47:54;20.3;;;6.2;;
50651;SDS011;66928;52.086;5.240;2023-02-03T18:51:10;22.0;;;6.4;;
50651;SDS011;66928;52.086;5.240;2023-02-03T18:52:51;24.5;;;6.8;;
50651;SDS011;66928;52.086;5.240;2023-02-03T18:54:28;22.7;;;6.7;;
50651;SDS011;66928;52.086;5.240;2023-02-03T18:57:43;22.2;;;6.5;;
50651;SDS011;66928;52.086;5.240;2023-02-03T18:59:19;22.1;;;6.4;;
50651;SDS011;66928;52.086;5.240;2023-02-03T19:00:57;26.3;;;6.7;;
50651;SDS011;66928;52.086;5.240;2023-02-03T19:02:34;22.7;;;6.5;;
50651;SDS011;66928;52.086;5.240;2023-02-03T19:05:47;20.3;;;6.3;;
50651;SDS011;66928;52.086;5.240;2023-02-03T19:07:24;22.5;;;6.2;;
50651;SDS011;66928;52.086;5.240;2023-02-03T19:09:01;22.7;;;6.6;;
50651;SDS011;66928;52.086;5.240;2023-02-03T19:12:15;20.0;;;6.2;;
50651;SDS011;66928;52.086;5.240;2023-02-03T19:13:51;21.9;;;6.4;;
50651;SDS011;66928;52.086;5.240;2023-02-03T19:15:28;20.11;;;5.9;;
50651;SDS011;66928;52.086;5.240;2023-02-03T19:17:05;24.0;;;6.5;;
50651;SDS011;66928;52.086;5.240;2023-02-03T19:20:19;22.1;;;6.7;;
50651;SDS011;66928;52.086;5.240;2023-02-03T19:21:55;21.2;;;6.8;;
50651;SDS011;66928;52.086;5.240;2023-02-03T19:23:31;18.5;;;6.1;;
50651;SDS011;66928;52.086;5.240;2023-02-03T19:26:45;21.9;;;6.5;;
50651;SDS011;66928;52.086;5.240;2023-02-03T19:28:21;20.0;;;6.2;;
50651;SDS011;66928;52.086;5.240;2023-02-03T19:29:58;19.91;;;6.0;;
50651;SDS011;66928;52.086;5.240;2023-02-03T19:33:11;19.61;;;6.1;;
50651;SDS011;66928;52.086;5.240;2023-02-03T19:34:48;24.4;;;6.5;;
50651;SDS011;66928;52.086;5.240;2023-02-03T19:36:25;21.8;;;6.4;;
50651;SDS011;66928;52.086;5.240;2023-02-03T19:38:03;23.3;;;6.3;;
50651;SDS011;66928;52.086;5.240;2023-02-03T19:41:16;24.0;;;6.2;;
50651;SDS011;66928;52.086;5.240;2023-02-03T19:42:52;23.6;;;6.7;;
50651;SDS011;66928;52.086;5.240;2023-02-03T19:44:28;19.8;;;6.4;;
50651;SDS011;66928;52.086;5.240;2023-02-03T19:47:41;21.3;;;6.6;;
50651;SDS011;66928;52.086;5.240;2023-02-03T19:49:17;19.2;;;6.2;;
50651;SDS011;66928;52.086;5.240;2023-02-03T19:50:54;21.6;;;6.2;;
50651;SDS011;66928;52.086;5.240;2023-02-03T19:54:06;21.5;;;6.1;;
50651;SDS011;66928;52.086;5.240;2023-02-03T19:55:46;24.0;;;6.3;;